sensor_id;sensor_type;location;lat;lon;timestamp;P1;durP1;ratioP1;P2;durP2;ratioP2
23358;SDS011;11851;50.796;4.372;2022-11-15T00:00:53;32.60;;;20.25;;
23358;SDS011;11851;50.796;4.372;2022-11-15T00:03:27;32.90;;;19.80;;
23358;SDS011;11851;50.796;4.372;2022-11-15T00:05:53;39.15;;;19.92;;
23358;SDS011;11851;50.796;4.372;2022-11-15T00:08:19;34.90;;;20.15;;
23358;SDS011;11851;50.796;4.372;2022-11-15T00:10:58;36.13;;;21.40;;
23358;SDS011;11851;50.796;4.372;2022-11-15T00:13:24;36.78;;;20.60;;
23358;SDS011;11851;50.796;4.372;2022-11-15T00:15:50;41.47;;;21.77;;
23358;SDS011;11851;50.796;4.372;2022-11-15T00:18:16;36.35;;;20.23;;
23358;SDS011;11851;50.796;4.372;2022-11-15T00:20:42;35.70;;;21.98;;
23358;SDS011;11851;50.796;4.372;2022-11-15T00:23:08;36.97;;;21.42;;
23358;SDS011;11851;50.796;4.372;2022-11-15T00:25:34;39.00;;;22.40;;
23358;SDS011;11851;50.796;4.372;2022-11-15T00:28:00;38.47;;;21.70;;
23358;SDS011;11851;50.796;4.372;2022-11-15T00:30:27;36.15;;;22.30;;
23358;SDS011;11851;50.796;4.372;2022-11-15T00:32:53;38.97;;;21.00;;
23358;SDS011;11851;50.796;4.372;2022-11-15T00:35:19;37.55;;;22.20;;
23358;SDS011;11851;50.796;4.372;2022-11-15T00:37:46;41.95;;;23.13;;
23358;SDS011;11851;50.796;4.372;2022-11-15T00:40:12;43.22;;;22.40;;
23358;SDS011;11851;50.796;4.372;2022-11-15T00:42:38;44.78;;;23.15;;
23358;SDS011;11851;50.796;4.372;2022-11-15T00:45:04;41.17;;;24.17;;
23358;SDS011;11851;50.796;4.372;2022-11-15T00:47:30;44.80;;;24.42;;
23358;SDS011;11851;50.796;4.372;2022-11-15T00:49:56;45.60;;;24.08;;
23358;SDS011;11851;50.796;4.372;2022-11-15T00:52:21;48.55;;;25.92;;
23358;SDS011;11851;50.796;4.372;2022-11-15T00:54:47;49.72;;;26.58;;
23358;SDS011;11851;50.796;4.372;2022-11-15T00:57:13;47.38;;;25.83;;
23358;SDS011;11851;50.796;4.372;2022-11-15T00:59:38;50.72;;;26.98;;
23358;SDS011;11851;50.796;4.372;2022-11-15T01:02:04;45.33;;;25.73;;
23358;SDS011;11851;50.796;4.372;2022-11-15T01:04:30;50.65;;;26.35;;
23358;SDS011;11851;50.796;4.372;2022-11-15T01:06:55;47.00;;;27.95;;
23358;SDS011;11851;50.796;4.372;2022-11-15T01:09:21;51.72;;;26.60;;
23358;SDS011;11851;50.796;4.372;2022-11-15T01:11:47;47.88;;;27.05;;
23358;SDS011;11851;50.796;4.372;2022-11-15T01:14:13;43.83;;;26.02;;
23358;SDS011;11851;50.796;4.372;2022-11-15T01:16:38;51.80;;;25.67;;
23358;SDS011;11851;50.796;4.372;2022-11-15T01:19:04;48.70;;;26.15;;
23358;SDS011;11851;50.796;4.372;2022-11-15T01:21:30;50.47;;;25.83;;
23358;SDS011;11851;50.796;4.372;2022-11-15T01:23:56;44.67;;;25.45;;
23358;SDS011;11851;50.796;4.372;2022-11-15T01:26:22;45.45;;;24.90;;
23358;SDS011;11851;50.796;4.372;2022-11-15T01:28:48;43.80;;;23.67;;
23358;SDS011;11851;50.796;4.372;2022-11-15T01:31:16;38.15;;;22.63;;
23358;SDS011;11851;50.796;4.372;2022-11-15T01:33:44;40.53;;;21.92;;
23358;SDS011;11851;50.796;4.372;2022-11-15T01:36:12;42.22;;;21.42;;
23358;SDS011;11851;50.796;4.372;2022-11-15T01:38:40;37.63;;;20.80;;
23358;SDS011;11851;50.796;4.372;2022-11-15T01:41:06;42.53;;;21.15;;
23358;SDS011;11851;50.796;4.372;2022-11-15T01:43:39;32.63;;;19.38;;
23358;SDS011;11851;50.796;4.372;2022-11-15T01:49:00;28.40;;;17.63;;
23358;SDS011;11851;50.796;4.372;2022-11-15T01:51:29;34.95;;;18.40;;
23358;SDS011;11851;50.796;4.372;2022-11-15T01:53:58;33.92;;;17.50;;
23358;SDS011;11851;50.796;4.372;2022-11-15T01:56:27;33.80;;;18.27;;
23358;SDS011;11851;50.796;4.372;2022-11-15T01:58:58;27.48;;;15.65;;
23358;SDS011;11851;50.796;4.372;2022-11-15T02:01:27;36.78;;;17.25;;
23358;SDS011;11851;50.796;4.372;2022-11-15T02:03:57;28.48;;;17.77;;
23358;SDS011;11851;50.796;4.372;2022-11-15T02:06:24;29.98;;;17.05;;
23358;SDS011;11851;50.796;4.372;2022-11-15T02:08:50;30.45;;;16.92;;
23358;SDS011;11851;50.796;4.372;2022-11-15T02:11:16;30.92;;;16.40;;
23358;SDS011;11851;50.796;4.372;2022-11-15T02:13:42;27.73;;;15.98;;
23358;SDS011;11851;50.796;4.372;2022-11-15T02:16:12;32.22;;;16.60;;
23358;SDS011;11851;50.796;4.372;2022-11-15T02:33:01;28.92;;;16.15;;
23358;SDS011;11851;50.796;4.372;2022-11-15T02:38:36;28.52;;;15.95;;
23358;SDS011;11851;50.796;4.372;2022-11-15T02:41:47;32.15;;;15.77;;
23358;SDS011;11851;50.796;4.372;2022-11-15T02:44:25;31.48;;;16.55;;
23358;SDS011;11851;50.796;4.372;2022-11-15T02:46:58;28.15;;;14.68;;
23358;SDS011;11851;50.796;4.372;2022-11-15T02:49:40;26.05;;;13.77;;
23358;SDS011;11851;50.796;4.372;2022-11-15T02:52:17;26.10;;;13.70;;
23358;SDS011;11851;50.796;4.372;2022-11-15T02:54:54;28.83;;;13.32;;
23358;SDS011;11851;50.796;4.372;2022-11-15T02:57:54;28.70;;;14.20;;
23358;SDS011;11851;50.796;4.372;2022-11-15T03:00:20;21.10;;;12.95;;
23358;SDS011;11851;50.796;4.372;2022-11-15T03:05:44;29.25;;;13.68;;
23358;SDS011;11851;50.796;4.372;2022-11-15T03:08:31;23.67;;;12.98;;
23358;SDS011;11851;50.796;4.372;2022-11-15T03:11:06;23.90;;;12.00;;
23358;SDS011;11851;50.796;4.372;2022-11-15T03:16:03;21.92;;;11.05;;
23358;SDS011;11851;50.796;4.372;2022-11-15T03:18:38;19.30;;;10.73;;
23358;SDS011;11851;50.796;4.372;2022-11-15T03:21:08;22.13;;;10.38;;
23358;SDS011;11851;50.796;4.372;2022-11-15T03:23:37;16.73;;;9.90;;
23358;SDS011;11851;50.796;4.372;2022-11-15T03:26:05;20.42;;;9.18;;
23358;SDS011;11851;50.796;4.372;2022-11-15T03:29:22;22.38;;;9.90;;
23358;SDS011;11851;50.796;4.372;2022-11-15T03:31:28;16.85;;;8.65;;
23358;SDS011;11851;50.796;4.372;2022-11-15T03:34:19;16.00;;;8.43;;
23358;SDS011;11851;50.796;4.372;2022-11-15T03:36:54;16.50;;;8.82;;
23358;SDS011;11851;50.796;4.372;2022-11-15T03:39:20;15.63;;;8.20;;
23358;SDS011;11851;50.796;4.372;2022-11-15T03:41:48;18.10;;;8.18;;
23358;SDS011;11851;50.796;4.372;2022-11-15T03:47:06;14.07;;;7.47;;
23358;SDS011;11851;50.796;4.372;2022-11-15T03:49:38;16.23;;;7.18;;
23358;SDS011;11851;50.796;4.372;2022-11-15T03:52:09;23.42;;;7.63;;
23358;SDS011;11851;50.796;4.372;2022-11-15T03:54:36;15.68;;;7.20;;
23358;SDS011;11851;50.796;4.372;2022-11-15T03:57:02;17.75;;;6.90;;
23358;SDS011;11851;50.796;4.372;2022-11-15T03:59:27;14.13;;;6.95;;
23358;SDS011;11851;50.796;4.372;2022-11-15T04:01:53;12.20;;;7.07;;
23358;SDS011;11851;50.796;4.372;2022-11-15T04:04:19;19.55;;;7.05;;
23358;SDS011;11851;50.796;4.372;2022-11-15T04:06:44;16.88;;;8.10;;
23358;SDS011;11851;50.796;4.372;2022-11-15T04:09:10;14.85;;;7.78;;
23358;SDS011;11851;50.796;4.372;2022-11-15T04:11:36;12.10;;;7.15;;
23358;SDS011;11851;50.796;4.372;2022-11-15T04:14:01;15.32;;;7.68;;
23358;SDS011;11851;50.796;4.372;2022-11-15T04:16:27;21.30;;;8.05;;
23358;SDS011;11851;50.796;4.372;2022-11-15T04:18:52;13.95;;;7.47;;
23358;SDS011;11851;50.796;4.372;2022-11-15T04:21:37;13.70;;;7.53;;
23358;SDS011;11851;50.796;4.372;2022-11-15T04:24:28;15.70;;;7.53;;
23358;SDS011;11851;50.796;4.372;2022-11-15T04:26:54;16.35;;;7.78;;
23358;SDS011;11851;50.796;4.372;2022-11-15T04:29:19;17.33;;;7.60;;
23358;SDS011;11851;50.796;4.372;2022-11-15T04:32:01;17.63;;;7.50;;
23358;SDS011;11851;50.796;4.372;2022-11-15T04:34:30;17.00;;;7.43;;
23358;SDS011;11851;50.796;4.372;2022-11-15T04:36:56;17.45;;;7.55;;
23358;SDS011;11851;50.796;4.372;2022-11-15T04:39:37;13.70;;;6.90;;
23358;SDS011;11851;50.796;4.372;2022-11-15T04:42:03;15.85;;;7.15;;
23358;SDS011;11851;50.796;4.372;2022-11-15T04:44:29;19.75;;;7.95;;
23358;SDS011;11851;50.796;4.372;2022-11-15T04:46:55;12.50;;;6.70;;
23358;SDS011;11851;50.796;4.372;2022-11-15T04:49:21;13.52;;;6.82;;
23358;SDS011;11851;50.796;4.372;2022-11-15T04:51:46;14.90;;;6.60;;
23358;SDS011;11851;50.796;4.372;2022-11-15T04:54:12;17.05;;;7.05;;
23358;SDS011;11851;50.796;4.372;2022-11-15T04:56:38;13.25;;;6.50;;
23358;SDS011;11851;50.796;4.372;2022-11-15T04:59:03;14.25;;;6.55;;
23358;SDS011;11851;50.796;4.372;2022-11-15T05:01:29;10.65;;;6.63;;
23358;SDS011;11851;50.796;4.372;2022-11-15T05:03:55;17.75;;;5.72;;
23358;SDS011;11851;50.796;4.372;2022-11-15T05:06:39;13.77;;;6.78;;
23358;SDS011;11851;50.796;4.372;2022-11-15T05:09:04;14.80;;;6.78;;
23358;SDS011;11851;50.796;4.372;2022-11-15T05:11:30;13.73;;;5.95;;
23358;SDS011;11851;50.796;4.372;2022-11-15T05:13:56;12.63;;;5.47;;
23358;SDS011;11851;50.796;4.372;2022-11-15T05:16:21;12.43;;;5.75;;
23358;SDS011;11851;50.796;4.372;2022-11-15T05:18:50;13.73;;;5.07;;
23358;SDS011;11851;50.796;4.372;2022-11-15T05:21:19;12.25;;;5.60;;
23358;SDS011;11851;50.796;4.372;2022-11-15T05:23:45;15.18;;;4.88;;
23358;SDS011;11851;50.796;4.372;2022-11-15T05:26:10;14.32;;;5.50;;
23358;SDS011;11851;50.796;4.372;2022-11-15T05:28:36;13.80;;;5.03;;
23358;SDS011;11851;50.796;4.372;2022-11-15T05:31:06;13.20;;;4.90;;
23358;SDS011;11851;50.796;4.372;2022-11-15T05:33:34;12.00;;;5.03;;
23358;SDS011;11851;50.796;4.372;2022-11-15T05:36:03;16.17;;;4.95;;
23358;SDS011;11851;50.796;4.372;2022-11-15T05:38:35;20.13;;;4.65;;
23358;SDS011;11851;50.796;4.372;2022-11-15T05:41:01;11.63;;;4.32;;
23358;SDS011;11851;50.796;4.372;2022-11-15T05:43:28;13.32;;;4.60;;
23358;SDS011;11851;50.796;4.372;2022-11-15T05:45:57;15.30;;;5.28;;
23358;SDS011;11851;50.796;4.372;2022-11-15T05:48:24;14.02;;;4.97;;
23358;SDS011;11851;50.796;4.372;2022-11-15T05:50:50;16.33;;;4.93;;
23358;SDS011;11851;50.796;4.372;2022-11-15T05:53:17;14.05;;;5.32;;
23358;SDS011;11851;50.796;4.372;2022-11-15T05:55:46;14.88;;;4.97;;
23358;SDS011;11851;50.796;4.372;2022-11-15T05:58:12;14.30;;;5.57;;
23358;SDS011;11851;50.796;4.372;2022-11-15T06:00:38;13.10;;;5.18;;
23358;SDS011;11851;50.796;4.372;2022-11-15T06:03:04;19.75;;;5.13;;
23358;SDS011;11851;50.796;4.372;2022-11-15T06:05:29;21.70;;;5.53;;
23358;SDS011;11851;50.796;4.372;2022-11-15T06:07:58;12.13;;;4.18;;
23358;SDS011;11851;50.796;4.372;2022-11-15T06:10:24;10.82;;;4.32;;
23358;SDS011;11851;50.796;4.372;2022-11-15T06:12:59;15.10;;;4.65;;
23358;SDS011;11851;50.796;4.372;2022-11-15T06:15:26;14.57;;;4.60;;
23358;SDS011;11851;50.796;4.372;2022-11-15T06:17:52;15.13;;;4.85;;
23358;SDS011;11851;50.796;4.372;2022-11-15T06:20:22;13.35;;;4.72;;
23358;SDS011;11851;50.796;4.372;2022-11-15T06:22:48;10.02;;;4.22;;
23358;SDS011;11851;50.796;4.372;2022-11-15T06:25:14;10.57;;;4.43;;
23358;SDS011;11851;50.796;4.372;2022-11-15T06:27:39;12.70;;;4.35;;
23358;SDS011;11851;50.796;4.372;2022-11-15T06:30:05;11.85;;;5.00;;
23358;SDS011;11851;50.796;4.372;2022-11-15T06:32:31;14.48;;;5.10;;
23358;SDS011;11851;50.796;4.372;2022-11-15T06:34:57;14.50;;;5.18;;
23358;SDS011;11851;50.796;4.372;2022-11-15T06:37:22;15.30;;;5.50;;
23358;SDS011;11851;50.796;4.372;2022-11-15T06:39:48;11.20;;;4.72;;
23358;SDS011;11851;50.796;4.372;2022-11-15T06:42:13;13.95;;;5.13;;
23358;SDS011;11851;50.796;4.372;2022-11-15T06:44:39;15.45;;;4.82;;
23358;SDS011;11851;50.796;4.372;2022-11-15T06:47:05;14.95;;;4.50;;
23358;SDS011;11851;50.796;4.372;2022-11-15T06:49:30;14.98;;;4.82;;
23358;SDS011;11851;50.796;4.372;2022-11-15T06:51:56;11.40;;;4.60;;
23358;SDS011;11851;50.796;4.372;2022-11-15T06:54:21;8.98;;;4.43;;
23358;SDS011;11851;50.796;4.372;2022-11-15T06:56:47;12.15;;;4.30;;
23358;SDS011;11851;50.796;4.372;2022-11-15T06:59:13;11.55;;;4.22;;
23358;SDS011;11851;50.796;4.372;2022-11-15T07:01:38;16.35;;;4.75;;
23358;SDS011;11851;50.796;4.372;2022-11-15T07:04:04;16.48;;;4.70;;
23358;SDS011;11851;50.796;4.372;2022-11-15T07:06:29;11.20;;;4.40;;
23358;SDS011;11851;50.796;4.372;2022-11-15T07:08:55;12.48;;;4.63;;
23358;SDS011;11851;50.796;4.372;2022-11-15T07:11:21;16.67;;;4.82;;
23358;SDS011;11851;50.796;4.372;2022-11-15T07:13:46;17.23;;;4.80;;
23358;SDS011;11851;50.796;4.372;2022-11-15T07:16:12;13.68;;;5.07;;
23358;SDS011;11851;50.796;4.372;2022-11-15T07:18:38;13.32;;;4.57;;
23358;SDS011;11851;50.796;4.372;2022-11-15T07:21:06;21.27;;;6.15;;
23358;SDS011;11851;50.796;4.372;2022-11-15T07:23:35;13.73;;;5.32;;
23358;SDS011;11851;50.796;4.372;2022-11-15T07:26:02;17.98;;;5.60;;
23358;SDS011;11851;50.796;4.372;2022-11-15T07:28:28;11.45;;;4.97;;
23358;SDS011;11851;50.796;4.372;2022-11-15T07:30:54;16.45;;;4.85;;
23358;SDS011;11851;50.796;4.372;2022-11-15T07:33:20;10.25;;;4.80;;
23358;SDS011;11851;50.796;4.372;2022-11-15T07:35:46;10.48;;;4.88;;
23358;SDS011;11851;50.796;4.372;2022-11-15T07:38:14;14.80;;;4.80;;
23358;SDS011;11851;50.796;4.372;2022-11-15T07:40:44;13.60;;;4.60;;
23358;SDS011;11851;50.796;4.372;2022-11-15T07:43:10;12.27;;;4.57;;
23358;SDS011;11851;50.796;4.372;2022-11-15T07:45:39;10.43;;;5.05;;
23358;SDS011;11851;50.796;4.372;2022-11-15T07:48:07;14.75;;;4.88;;
23358;SDS011;11851;50.796;4.372;2022-11-15T07:50:32;9.80;;;4.85;;
23358;SDS011;11851;50.796;4.372;2022-11-15T07:52:59;11.02;;;4.40;;
23358;SDS011;11851;50.796;4.372;2022-11-15T07:55:25;11.45;;;4.10;;
23358;SDS011;11851;50.796;4.372;2022-11-15T07:57:52;9.10;;;3.92;;
23358;SDS011;11851;50.796;4.372;2022-11-15T08:00:18;10.55;;;4.00;;
23358;SDS011;11851;50.796;4.372;2022-11-15T08:02:44;13.38;;;4.55;;
23358;SDS011;11851;50.796;4.372;2022-11-15T08:05:10;11.77;;;4.90;;
23358;SDS011;11851;50.796;4.372;2022-11-15T08:07:36;9.95;;;4.10;;
23358;SDS011;11851;50.796;4.372;2022-11-15T08:10:03;13.30;;;4.75;;
23358;SDS011;11851;50.796;4.372;2022-11-15T08:12:30;8.70;;;4.70;;
23358;SDS011;11851;50.796;4.372;2022-11-15T08:14:56;15.38;;;5.00;;
23358;SDS011;11851;50.796;4.372;2022-11-15T08:17:22;9.68;;;4.00;;
23358;SDS011;11851;50.796;4.372;2022-11-15T08:19:48;16.92;;;3.90;;
23358;SDS011;11851;50.796;4.372;2022-11-15T08:22:14;8.43;;;3.88;;
23358;SDS011;11851;50.796;4.372;2022-11-15T08:24:40;8.52;;;3.35;;
23358;SDS011;11851;50.796;4.372;2022-11-15T08:27:06;7.43;;;3.15;;
23358;SDS011;11851;50.796;4.372;2022-11-15T08:29:39;8.10;;;3.10;;
23358;SDS011;11851;50.796;4.372;2022-11-15T08:32:12;10.40;;;2.85;;
23358;SDS011;11851;50.796;4.372;2022-11-15T08:34:38;10.98;;;3.33;;
23358;SDS011;11851;50.796;4.372;2022-11-15T08:37:04;9.68;;;2.75;;
23358;SDS011;11851;50.796;4.372;2022-11-15T08:39:30;10.35;;;2.90;;
23358;SDS011;11851;50.796;4.372;2022-11-15T08:41:55;9.57;;;2.90;;
23358;SDS011;11851;50.796;4.372;2022-11-15T08:44:21;6.88;;;2.72;;
23358;SDS011;11851;50.796;4.372;2022-11-15T08:46:47;9.68;;;2.97;;
23358;SDS011;11851;50.796;4.372;2022-11-15T08:49:12;11.43;;;2.80;;
23358;SDS011;11851;50.796;4.372;2022-11-15T08:51:38;12.57;;;2.83;;
23358;SDS011;11851;50.796;4.372;2022-11-15T08:54:04;11.68;;;2.65;;
23358;SDS011;11851;50.796;4.372;2022-11-15T08:56:29;8.95;;;3.17;;
23358;SDS011;11851;50.796;4.372;2022-11-15T08:58:55;10.07;;;2.60;;
23358;SDS011;11851;50.796;4.372;2022-11-15T09:01:21;10.23;;;2.78;;
23358;SDS011;11851;50.796;4.372;2022-11-15T09:03:47;9.93;;;2.88;;
23358;SDS011;11851;50.796;4.372;2022-11-15T09:06:13;10.07;;;2.30;;
23358;SDS011;11851;50.796;4.372;2022-11-15T09:08:39;9.65;;;2.33;;
23358;SDS011;11851;50.796;4.372;2022-11-15T09:11:06;10.60;;;2.60;;
23358;SDS011;11851;50.796;4.372;2022-11-15T09:13:32;9.77;;;2.15;;
23358;SDS011;11851;50.796;4.372;2022-11-15T09:15:59;8.25;;;2.13;;
23358;SDS011;11851;50.796;4.372;2022-11-15T09:18:25;8.35;;;2.03;;
23358;SDS011;11851;50.796;4.372;2022-11-15T09:20:50;12.25;;;2.10;;
23358;SDS011;11851;50.796;4.372;2022-11-15T09:23:16;15.27;;;2.33;;
23358;SDS011;11851;50.796;4.372;2022-11-15T09:25:42;7.72;;;2.13;;
23358;SDS011;11851;50.796;4.372;2022-11-15T09:28:08;10.05;;;2.13;;
23358;SDS011;11851;50.796;4.372;2022-11-15T09:30:33;8.45;;;2.00;;
23358;SDS011;11851;50.796;4.372;2022-11-15T09:33:05;9.90;;;2.13;;
23358;SDS011;11851;50.796;4.372;2022-11-15T09:35:35;9.20;;;2.08;;
23358;SDS011;11851;50.796;4.372;2022-11-15T09:38:01;4.68;;;2.08;;
23358;SDS011;11851;50.796;4.372;2022-11-15T09:40:26;7.90;;;2.60;;
23358;SDS011;11851;50.796;4.372;2022-11-15T09:50:49;16.02;;;2.20;;
23358;SDS011;11851;50.796;4.372;2022-11-15T09:53:27;12.88;;;1.88;;
23358;SDS011;11851;50.796;4.372;2022-11-15T09:58:49;11.00;;;2.10;;
23358;SDS011;11851;50.796;4.372;2022-11-15T10:01:35;7.75;;;1.90;;
23358;SDS011;11851;50.796;4.372;2022-11-15T10:04:16;9.48;;;1.50;;
23358;SDS011;11851;50.796;4.372;2022-11-15T10:06:46;9.27;;;1.90;;
23358;SDS011;11851;50.796;4.372;2022-11-15T10:10:13;10.85;;;1.70;;
23358;SDS011;11851;50.796;4.372;2022-11-15T10:12:45;13.05;;;1.80;;
23358;SDS011;11851;50.796;4.372;2022-11-15T10:15:14;6.85;;;1.60;;
23358;SDS011;11851;50.796;4.372;2022-11-15T10:17:55;13.20;;;2.15;;
23358;SDS011;11851;50.796;4.372;2022-11-15T10:20:48;6.40;;;1.73;;
23358;SDS011;11851;50.796;4.372;2022-11-15T10:23:17;12.80;;;1.75;;
23358;SDS011;11851;50.796;4.372;2022-11-15T10:25:44;10.20;;;2.97;;
23358;SDS011;11851;50.796;4.372;2022-11-15T10:30:51;11.45;;;2.35;;
23358;SDS011;11851;50.796;4.372;2022-11-15T10:38:52;7.07;;;1.58;;
23358;SDS011;11851;50.796;4.372;2022-11-15T10:41:29;15.02;;;2.30;;
23358;SDS011;11851;50.796;4.372;2022-11-15T10:46:46;10.82;;;1.30;;
23358;SDS011;11851;50.796;4.372;2022-11-15T10:49:28;14.05;;;1.67;;
23358;SDS011;11851;50.796;4.372;2022-11-15T10:52:00;11.23;;;1.60;;
23358;SDS011;11851;50.796;4.372;2022-11-15T10:57:22;6.78;;;1.40;;
23358;SDS011;11851;50.796;4.372;2022-11-15T10:59:51;9.73;;;2.47;;
23358;SDS011;11851;50.796;4.372;2022-11-15T11:05:02;16.00;;;2.20;;
23358;SDS011;11851;50.796;4.372;2022-11-15T11:07:31;16.60;;;2.50;;
23358;SDS011;11851;50.796;4.372;2022-11-15T11:10:03;10.60;;;2.58;;
23358;SDS011;11851;50.796;4.372;2022-11-15T11:12:41;11.27;;;2.05;;
23358;SDS011;11851;50.796;4.372;2022-11-15T11:15:14;10.82;;;2.10;;
23358;SDS011;11851;50.796;4.372;2022-11-15T11:17:49;9.38;;;1.98;;
23358;SDS011;11851;50.796;4.372;2022-11-15T11:22:50;11.13;;;1.85;;
23358;SDS011;11851;50.796;4.372;2022-11-15T11:28:14;7.30;;;1.83;;
23358;SDS011;11851;50.796;4.372;2022-11-15T11:38:32;10.13;;;1.90;;
23358;SDS011;11851;50.796;4.372;2022-11-15T11:41:15;12.35;;;1.83;;
23358;SDS011;11851;50.796;4.372;2022-11-15T11:54:39;14.93;;;1.98;;
23358;SDS011;11851;50.796;4.372;2022-11-15T11:57:07;11.35;;;1.60;;
23358;SDS011;11851;50.796;4.372;2022-11-15T12:00:04;9.75;;;1.90;;
23358;SDS011;11851;50.796;4.372;2022-11-15T12:02:59;8.35;;;1.80;;
23358;SDS011;11851;50.796;4.372;2022-11-15T12:05:27;6.85;;;1.30;;
23358;SDS011;11851;50.796;4.372;2022-11-15T12:08:03;11.60;;;1.80;;
23358;SDS011;11851;50.796;4.372;2022-11-15T12:13:13;8.02;;;1.90;;
23358;SDS011;11851;50.796;4.372;2022-11-15T12:16:00;7.53;;;2.30;;
23358;SDS011;11851;50.796;4.372;2022-11-15T12:18:49;5.83;;;1.60;;
23358;SDS011;11851;50.796;4.372;2022-11-15T12:21:21;6.47;;;1.17;;
23358;SDS011;11851;50.796;4.372;2022-11-15T12:24:14;9.32;;;1.90;;
23358;SDS011;11851;50.796;4.372;2022-11-15T12:26:58;7.25;;;2.10;;
23358;SDS011;11851;50.796;4.372;2022-11-15T12:29:45;7.35;;;1.52;;
23358;SDS011;11851;50.796;4.372;2022-11-15T12:32:57;4.82;;;1.55;;
23358;SDS011;11851;50.796;4.372;2022-11-15T12:35:20;12.60;;;2.22;;
23358;SDS011;11851;50.796;4.372;2022-11-15T12:37:51;7.80;;;1.45;;
23358;SDS011;11851;50.796;4.372;2022-11-15T12:40:27;7.97;;;1.50;;
23358;SDS011;11851;50.796;4.372;2022-11-15T12:45:40;6.47;;;1.63;;
23358;SDS011;11851;50.796;4.372;2022-11-15T12:48:51;5.20;;;1.70;;
23358;SDS011;11851;50.796;4.372;2022-11-15T12:51:02;7.28;;;1.80;;
23358;SDS011;11851;50.796;4.372;2022-11-15T12:53:32;10.80;;;2.00;;
23358;SDS011;11851;50.796;4.372;2022-11-15T13:01:52;5.57;;;2.05;;
23358;SDS011;11851;50.796;4.372;2022-11-15T13:11:59;4.47;;;1.60;;
23358;SDS011;11851;50.796;4.372;2022-11-15T13:17:28;7.55;;;1.42;;
23358;SDS011;11851;50.796;4.372;2022-11-15T13:22:39;9.38;;;1.55;;
23358;SDS011;11851;50.796;4.372;2022-11-15T13:27:57;4.47;;;1.25;;
23358;SDS011;11851;50.796;4.372;2022-11-15T13:30:32;7.95;;;1.70;;
23358;SDS011;11851;50.796;4.372;2022-11-15T13:32:58;6.03;;;1.58;;
23358;SDS011;11851;50.796;4.372;2022-11-15T13:35:38;6.78;;;2.38;;
23358;SDS011;11851;50.796;4.372;2022-11-15T13:38:05;8.85;;;1.48;;
23358;SDS011;11851;50.796;4.372;2022-11-15T13:40:35;7.85;;;1.50;;
23358;SDS011;11851;50.796;4.372;2022-11-15T13:43:25;6.43;;;1.38;;
23358;SDS011;11851;50.796;4.372;2022-11-15T13:46:12;10.20;;;1.58;;
23358;SDS011;11851;50.796;4.372;2022-11-15T13:48:39;9.63;;;1.80;;
23358;SDS011;11851;50.796;4.372;2022-11-15T13:51:10;6.07;;;1.90;;
23358;SDS011;11851;50.796;4.372;2022-11-15T13:54:02;5.70;;;1.38;;
23358;SDS011;11851;50.796;4.372;2022-11-15T13:56:38;2.85;;;1.25;;
23358;SDS011;11851;50.796;4.372;2022-11-15T13:59:20;4.35;;;1.20;;
23358;SDS011;11851;50.796;4.372;2022-11-15T14:01:49;5.43;;;1.75;;
23358;SDS011;11851;50.796;4.372;2022-11-15T14:04:18;8.10;;;1.73;;
23358;SDS011;11851;50.796;4.372;2022-11-15T14:06:51;3.65;;;1.30;;
23358;SDS011;11851;50.796;4.372;2022-11-15T14:09:32;8.18;;;1.70;;
23358;SDS011;11851;50.796;4.372;2022-11-15T14:11:59;4.32;;;1.40;;
23358;SDS011;11851;50.796;4.372;2022-11-15T14:14:27;4.25;;;1.52;;
23358;SDS011;11851;50.796;4.372;2022-11-15T14:16:55;6.55;;;2.00;;
23358;SDS011;11851;50.796;4.372;2022-11-15T14:24:35;4.78;;;1.52;;
23358;SDS011;11851;50.796;4.372;2022-11-15T14:29:50;6.40;;;1.77;;
23358;SDS011;11851;50.796;4.372;2022-11-15T14:32:17;5.07;;;1.60;;
23358;SDS011;11851;50.796;4.372;2022-11-15T14:34:49;4.68;;;1.60;;
23358;SDS011;11851;50.796;4.372;2022-11-15T14:37:26;5.20;;;1.55;;
23358;SDS011;11851;50.796;4.372;2022-11-15T14:39:59;6.45;;;1.73;;
23358;SDS011;11851;50.796;4.372;2022-11-15T14:42:26;5.68;;;1.92;;
23358;SDS011;11851;50.796;4.372;2022-11-15T14:44:52;5.05;;;1.55;;
23358;SDS011;11851;50.796;4.372;2022-11-15T14:47:17;10.65;;;2.00;;
23358;SDS011;11851;50.796;4.372;2022-11-15T14:49:43;5.28;;;2.08;;
23358;SDS011;11851;50.796;4.372;2022-11-15T14:52:23;6.20;;;2.50;;
23358;SDS011;11851;50.796;4.372;2022-11-15T14:54:54;6.63;;;2.55;;
23358;SDS011;11851;50.796;4.372;2022-11-15T14:57:20;10.10;;;3.95;;
23358;SDS011;11851;50.796;4.372;2022-11-15T14:59:46;8.48;;;2.75;;
23358;SDS011;11851;50.796;4.372;2022-11-15T15:02:16;4.40;;;2.35;;
23358;SDS011;11851;50.796;4.372;2022-11-15T15:04:46;4.78;;;2.22;;
23358;SDS011;11851;50.796;4.372;2022-11-15T15:07:13;4.72;;;2.00;;
23358;SDS011;11851;50.796;4.372;2022-11-15T15:09:38;8.07;;;3.85;;
23358;SDS011;11851;50.796;4.372;2022-11-15T15:12:05;7.13;;;2.85;;
23358;SDS011;11851;50.796;4.372;2022-11-15T15:14:46;5.45;;;2.10;;
23358;SDS011;11851;50.796;4.372;2022-11-15T15:17:13;6.95;;;2.75;;
23358;SDS011;11851;50.796;4.372;2022-11-15T15:19:39;6.25;;;2.25;;
23358;SDS011;11851;50.796;4.372;2022-11-15T15:22:05;7.88;;;3.40;;
23358;SDS011;11851;50.796;4.372;2022-11-15T15:24:34;6.93;;;3.10;;
23358;SDS011;11851;50.796;4.372;2022-11-15T15:27:00;10.50;;;4.00;;
23358;SDS011;11851;50.796;4.372;2022-11-15T15:29:25;6.28;;;3.17;;
23358;SDS011;11851;50.796;4.372;2022-11-15T15:31:51;8.10;;;3.45;;
23358;SDS011;11851;50.796;4.372;2022-11-15T15:34:17;7.53;;;3.72;;
23358;SDS011;11851;50.796;4.372;2022-11-15T15:36:42;6.78;;;3.17;;
23358;SDS011;11851;50.796;4.372;2022-11-15T15:39:08;6.80;;;2.38;;
23358;SDS011;11851;50.796;4.372;2022-11-15T15:41:36;6.82;;;2.50;;
23358;SDS011;11851;50.796;4.372;2022-11-15T15:44:01;4.15;;;2.40;;
23358;SDS011;11851;50.796;4.372;2022-11-15T15:46:27;6.85;;;2.83;;
23358;SDS011;11851;50.796;4.372;2022-11-15T15:48:53;5.88;;;2.90;;
23358;SDS011;11851;50.796;4.372;2022-11-15T15:51:18;6.28;;;2.83;;
23358;SDS011;11851;50.796;4.372;2022-11-15T15:53:44;6.70;;;3.25;;
23358;SDS011;11851;50.796;4.372;2022-11-15T15:56:10;5.72;;;3.22;;
23358;SDS011;11851;50.796;4.372;2022-11-15T15:58:35;6.22;;;2.80;;
23358;SDS011;11851;50.796;4.372;2022-11-15T16:01:01;5.80;;;2.83;;
23358;SDS011;11851;50.796;4.372;2022-11-15T16:03:27;7.38;;;3.72;;
23358;SDS011;11851;50.796;4.372;2022-11-15T16:05:53;18.27;;;6.40;;
23358;SDS011;11851;50.796;4.372;2022-11-15T16:08:19;12.88;;;5.15;;
23358;SDS011;11851;50.796;4.372;2022-11-15T16:10:47;11.20;;;5.13;;
23358;SDS011;11851;50.796;4.372;2022-11-15T16:13:13;7.80;;;4.38;;
23358;SDS011;11851;50.796;4.372;2022-11-15T16:15:39;7.85;;;4.00;;
23358;SDS011;11851;50.796;4.372;2022-11-15T16:18:05;7.85;;;3.45;;
23358;SDS011;11851;50.796;4.372;2022-11-15T16:20:36;7.82;;;3.75;;
23358;SDS011;11851;50.796;4.372;2022-11-15T16:23:04;14.93;;;3.90;;
23358;SDS011;11851;50.796;4.372;2022-11-15T16:25:33;6.80;;;3.67;;
23358;SDS011;11851;50.796;4.372;2022-11-15T16:28:02;6.32;;;3.28;;
23358;SDS011;11851;50.796;4.372;2022-11-15T16:30:28;6.28;;;3.30;;
23358;SDS011;11851;50.796;4.372;2022-11-15T16:32:53;7.13;;;3.80;;
23358;SDS011;11851;50.796;4.372;2022-11-15T16:35:19;7.82;;;4.07;;
23358;SDS011;11851;50.796;4.372;2022-11-15T16:37:50;7.40;;;3.58;;
23358;SDS011;11851;50.796;4.372;2022-11-15T16:40:23;7.47;;;3.30;;
23358;SDS011;11851;50.796;4.372;2022-11-15T16:42:59;10.13;;;4.13;;
23358;SDS011;11851;50.796;4.372;2022-11-15T16:45:27;14.60;;;3.65;;